Time,TemperatureF,DewpointF,PressureIn,WindDirection,WindDirectionDegrees,WindSpeedMPH,WindSpeedGustMPH,Humidity,HourlyPrecipIn,Conditions,Clouds,dailyrainin,SoftwareType,DateUTC
2013-04-19 00:03:00,75.0,71.0,30.02,SSE,148,5.0,8.0,87,99.99,,,-99.99,,2013-04-19 04:03:00,
2013-04-19 00:13:00,74.0,71.0,30.03,SSE,155,4.0,8.0,89,99.99,,,-99.99,,2013-04-19 04:13:00,
2013-04-19 00:23:00,74.0,71.0,30.03,SSE,155,4.0,8.0,89,99.99,,,-99.99,,2013-04-19 04:23:00,
2013-04-19 00:33:00,74.0,71.0,30.02,ESE,120,4.0,8.0,91,99.99,,,-99.99,,2013-04-19 04:33:00,
2013-04-19 00:43:00,73.0,71.0,30.02,SSE,155,6.0,9.0,93,99.99,,,-99.99,,2013-04-19 04:43:00,
2013-04-19 00:52:00,73.0,71.0,30.02,SSE,155,6.0,9.0,93,99.99,,,-99.99,,2013-04-19 04:52:00,
2013-04-19 01:03:00,73.0,71.0,30.02,South,172,5.0,9.0,93,99.99,,,-99.99,,2013-04-19 05:03:00,
2013-04-19 01:12:00,73.0,71.0,30.02,South,172,5.0,9.0,93,99.99,,,-99.99,,2013-04-19 05:12:00,
2013-04-19 01:22:00,73.0,71.0,30.02,SE,146,5.0,8.0,93,99.99,,,-99.99,,2013-04-19 05:22:00,
2013-04-19 01:32:00,74.0,72.0,30.02,SE,146,5.0,8.0,94,99.99,,,-99.99,,2013-04-19 05:32:00,
2013-04-19 01:42:00,74.0,72.0,30.02,SE,146,5.0,8.0,94,99.99,,,-99.99,,2013-04-19 05:42:00,
2013-04-19 01:52:00,74.0,72.0,30.01,SE,136,5.0,8.0,95,99.99,,,-99.99,,2013-04-19 05:52:00,
2013-04-19 02:02:00,74.0,72.0,30.01,South,170,3.0,7.0,95,99.99,,,-99.99,,2013-04-19 06:02:00,
2013-04-19 02:12:00,73.0,71.0,30.01,SSE,159,5.0,6.0,95,99.99,,,-99.99,,2013-04-19 06:12:00,
2013-04-19 02:22:00,73.0,71.0,30.01,SSE,159,5.0,6.0,95,99.99,,,-99.99,,2013-04-19 06:22:00,
2013-04-19 02:32:00,73.0,72.0,30.00,SSE,156,3.0,6.0,96,99.99,,,-99.99,,2013-04-19 06:32:00,
2013-04-19 02:42:00,73.0,72.0,30.00,SSE,156,3.0,6.0,96,99.99,,,-99.99,,2013-04-19 06:42:00,
2013-04-19 02:53:00,73.0,72.0,30.00,South,181,3.0,5.0,96,99.99,,,-99.99,,2013-04-19 06:53:00,
2013-04-19 03:02:00,73.0,72.0,29.99,SSE,148,4.0,8.0,97,99.99,,,-99.99,,2013-04-19 07:02:00,
2013-04-19 03:12:00,73.0,72.0,29.99,SSE,155,5.0,8.0,98,99.99,,,-99.99,,2013-04-19 07:12:00,
2013-04-19 03:21:00,73.0,72.0,29.99,SSE,155,5.0,8.0,98,99.99,,,-99.99,,2013-04-19 07:21:00,
2013-04-19 03:32:00,73.0,73.0,30.00,SSE,163,5.0,7.0,99,99.99,,,-99.99,,2013-04-19 07:32:00,
2013-04-19 03:42:00,73.0,73.0,29.99,SSE,150,5.0,8.0,99,99.99,,,-99.99,,2013-04-19 07:42:00,
2013-04-19 03:52:00,73.0,73.0,29.99,SSE,150,5.0,8.0,99,99.99,,,-99.99,,2013-04-19 07:52:00,
2013-04-19 04:02:00,72.0,72.0,29.99,SSE,160,4.0,7.0,99,99.99,,,-99.99,,2013-04-19 08:02:00,
2013-04-19 04:12:00,72.0,72.0,29.99,SE,129,5.0,10.0,100,99.99,,,-99.99,,2013-04-19 08:12:00,
2013-04-19 04:22:00,72.0,72.0,29.99,SE,129,5.0,10.0,100,99.99,,,-99.99,,2013-04-19 08:22:00,
2013-04-19 04:33:00,72.0,72.0,29.99,SSE,158,5.0,8.0,100,99.99,,,-99.99,,2013-04-19 08:33:00,
2013-04-19 04:42:00,72.0,72.0,29.99,SSE,153,4.0,6.0,100,99.99,,,-99.99,,2013-04-19 08:42:00,
2013-04-19 04:52:00,72.0,72.0,29.99,SSE,153,4.0,6.0,100,99.99,,,-99.99,,2013-04-19 08:52:00,
2013-04-19 05:01:00,72.0,72.0,29.98,South,180,4.0,6.0,100,99.99,,,-99.99,,2013-04-19 09:01:00,
2013-04-19 05:12:00,72.0,72.0,29.99,SE,139,3.0,6.0,100,99.99,,,-99.99,,2013-04-19 09:12:00,
2013-04-19 05:21:00,72.0,72.0,29.99,SE,139,3.0,6.0,100,99.99,,,-99.99,,2013-04-19 09:21:00,
2013-04-19 05:32:00,71.0,71.0,29.98,SE,135,4.0,6.0,100,99.99,,,-99.99,,2013-04-19 09:32:00,
2013-04-19 05:43:00,71.0,71.0,29.98,SE,135,4.0,6.0,100,99.99,,,-99.99,,2013-04-19 09:43:00,
2013-04-19 05:52:00,71.0,71.0,29.98,SSE,152,4.0,7.0,100,99.99,,,-99.99,,2013-04-19 09:52:00,
2013-04-19 06:02:00,71.0,71.0,29.98,SE,146,4.0,7.0,100,99.99,,,-99.99,,2013-04-19 10:02:00,
2013-04-19 06:13:00,71.0,71.0,29.98,SSE,150,4.0,8.0,100,99.99,,,-99.99,,2013-04-19 10:13:00,
2013-04-19 06:23:00,71.0,71.0,29.98,SSE,150,4.0,8.0,100,99.99,,,-99.99,,2013-04-19 10:23:00,
2013-04-19 06:33:00,71.0,71.0,29.99,SSE,153,4.0,7.0,100,99.99,,,-99.99,,2013-04-19 10:33:00,
2013-04-19 06:42:00,71.0,71.0,29.99,South,177,2.0,5.0,100,99.99,,,-99.99,,2013-04-19 10:42:00,
2013-04-19 06:52:00,71.0,71.0,29.99,South,177,2.0,5.0,100,99.99,,,-99.99,,2013-04-19 10:52:00,
2013-04-19 07:03:00,71.0,71.0,30.00,SSE,162,3.0,6.0,100,99.99,,,-99.99,,2013-04-19 11:03:00,
2013-04-19 07:11:00,70.0,70.0,30.00,SSE,165,2.0,4.0,100,99.99,,,-99.99,,2013-04-19 11:11:00,
2013-04-19 07:22:00,70.0,70.0,30.00,SSE,165,2.0,4.0,100,99.99,,,-99.99,,2013-04-19 11:22:00,
2013-04-19 07:32:00,70.0,70.0,30.01,SSE,165,1.0,3.0,100,99.99,,,-99.99,,2013-04-19 11:32:00,
2013-04-19 07:42:00,70.0,70.0,30.01,SSE,165,1.0,3.0,100,99.99,,,-99.99,,2013-04-19 11:42:00,
2013-04-19 07:52:00,70.0,70.0,30.01,North,0,0.0,0.0,100,99.99,,,-99.99,,2013-04-19 11:52:00,
2013-04-19 08:03:00,71.0,71.0,30.02,North,0,0.0,0.0,100,99.99,,,-99.99,,2013-04-19 12:03:00,
2013-04-19 08:12:00,72.0,72.0,30.02,South,170,2.0,5.0,100,99.99,,,-99.99,,2013-04-19 12:12:00,
2013-04-19 08:22:00,72.0,72.0,30.02,South,170,2.0,5.0,100,99.99,,,-99.99,,2013-04-19 12:22:00,
2013-04-19 08:32:00,73.0,73.0,30.03,SSW,204,3.0,6.0,100,99.99,,,-99.99,,2013-04-19 12:32:00,
2013-04-19 08:42:00,73.0,73.0,30.03,SSW,204,3.0,6.0,100,99.99,,,-99.99,,2013-04-19 12:42:00,
2013-04-19 08:53:00,74.0,74.0,30.03,SW,221,4.0,6.0,100,99.99,,,-99.99,,2013-04-19 12:53:00,
2013-04-19 09:01:00,75.0,75.0,30.03,SSW,198,6.0,10.0,100,99.99,,,-99.99,,2013-04-19 13:01:00,
2013-04-19 09:11:00,78.0,77.0,30.03,SSW,208,7.0,15.0,96,99.99,,,-99.99,,2013-04-19 13:11:00,
2013-04-19 09:21:00,78.0,77.0,30.03,SSW,208,7.0,15.0,96,99.99,,,-99.99,,2013-04-19 13:21:00,
2013-04-19 09:32:00,79.0,74.0,30.02,South,183,7.0,14.0,84,99.99,,,-99.99,,2013-04-19 13:32:00,
2013-04-19 09:42:00,80.0,73.0,30.02,SSW,207,9.0,14.0,79,99.99,,,-99.99,,2013-04-19 13:42:00,
2013-04-19 09:52:00,80.0,73.0,30.02,SSW,207,9.0,14.0,79,99.99,,,-99.99,,2013-04-19 13:52:00,
2013-04-19 10:02:00,81.0,72.0,30.02,ESE,120,8.0,16.0,74,99.99,,,-99.99,,2013-04-19 14:02:00,
2013-04-19 10:11:00,82.0,71.0,30.02,South,186,12.0,20.0,69,99.99,,,-99.99,,2013-04-19 14:11:00,
2013-04-19 10:22:00,82.0,71.0,30.02,South,186,12.0,20.0,69,99.99,,,-99.99,,2013-04-19 14:22:00,
2013-04-19 10:32:00,83.0,71.0,30.02,SW,232,9.0,14.0,67,99.99,,,-99.99,,2013-04-19 14:32:00,
2013-04-19 10:42:00,83.0,71.0,30.02,SW,232,9.0,14.0,67,99.99,,,-99.99,,2013-04-19 14:42:00,
2013-04-19 10:52:00,85.0,70.0,30.02,SSE,160,11.0,18.0,60,99.99,,,-99.99,,2013-04-19 14:52:00,
2013-04-19 11:02:00,85.0,69.0,30.03,SW,231,11.0,22.0,58,99.99,,,-99.99,,2013-04-19 15:02:00,
2013-04-19 11:12:00,86.0,67.0,30.03,SSW,200,14.0,23.0,54,99.99,,,-99.99,,2013-04-19 15:12:00,
2013-04-19 11:21:00,86.0,67.0,30.03,SSW,200,14.0,23.0,54,99.99,,,-99.99,,2013-04-19 15:21:00,
2013-04-19 11:33:00,87.0,69.0,30.03,SW,231,10.0,15.0,55,99.99,,,-99.99,,2013-04-19 15:33:00,
2013-04-19 11:43:00,87.0,69.0,30.03,SW,231,10.0,15.0,55,99.99,,,-99.99,,2013-04-19 15:43:00,
2013-04-19 11:52:00,87.0,68.0,30.03,SW,219,12.0,17.0,53,99.99,,,-99.99,,2013-04-19 15:52:00,
2013-04-19 12:03:00,87.0,68.0,30.02,South,186,11.0,19.0,53,99.99,,,-99.99,,2013-04-19 16:03:00,
2013-04-19 12:13:00,87.0,68.0,30.02,SW,222,10.0,15.0,53,99.99,,,-99.99,,2013-04-19 16:13:00,
2013-04-19 12:23:00,87.0,68.0,30.02,SW,222,10.0,15.0,53,99.99,,,-99.99,,2013-04-19 16:23:00,
2013-04-19 12:32:00,89.0,67.0,30.01,SW,229,13.0,19.0,48,99.99,,,-99.99,,2013-04-19 16:32:00,
2013-04-19 12:42:00,88.0,66.0,30.01,SSW,203,11.0,16.0,48,99.99,,,-99.99,,2013-04-19 16:42:00,
2013-04-19 12:53:00,88.0,66.0,30.01,SSW,203,11.0,16.0,48,99.99,,,-99.99,,2013-04-19 16:53:00,
2013-04-19 13:02:00,88.0,66.0,30.00,SW,221,9.0,14.0,48,99.99,,,-99.99,,2013-04-19 17:02:00,
2013-04-19 13:12:00,88.0,66.0,30.00,SW,221,9.0,14.0,48,99.99,,,-99.99,,2013-04-19 17:12:00,
2013-04-19 13:21:00,90.0,66.0,30.00,SSW,210,12.0,21.0,46,99.99,,,-99.99,,2013-04-19 17:21:00,
2013-04-19 13:33:00,91.0,67.0,30.00,South,184,11.0,19.0,45,99.99,,,-99.99,,2013-04-19 17:33:00,
2013-04-19 13:42:00,91.0,67.0,30.00,South,184,11.0,19.0,45,99.99,,,-99.99,,2013-04-19 17:42:00,
2013-04-19 13:52:00,93.0,65.0,29.99,West,263,10.0,16.0,40,99.99,,,-99.99,,2013-04-19 17:52:00,
2013-04-19 14:02:00,92.0,66.0,29.99,WSW,243,11.0,21.0,42,99.99,,,-99.99,,2013-04-19 18:02:00,
2013-04-19 14:13:00,92.0,66.0,29.99,WSW,243,11.0,21.0,42,99.99,,,-99.99,,2013-04-19 18:13:00,
2013-04-19 14:23:00,91.0,65.0,29.99,SW,217,10.0,17.0,43,99.99,,,-99.99,,2013-04-19 18:23:00,
2013-04-19 14:33:00,92.0,64.0,29.98,SW,229,11.0,16.0,40,99.99,,,-99.99,,2013-04-19 18:33:00,
2013-04-19 14:43:00,92.0,64.0,29.98,SW,229,11.0,16.0,40,99.99,,,-99.99,,2013-04-19 18:43:00,
2013-04-19 14:52:00,93.0,64.0,29.97,SSW,211,13.0,19.0,38,99.99,,,-99.99,,2013-04-19 18:52:00,
2013-04-19 15:02:00,93.0,64.0,29.96,SSW,205,9.0,16.0,39,99.99,,,-99.99,,2013-04-19 19:02:00,
2013-04-19 15:11:00,93.0,64.0,29.96,SW,219,10.0,15.0,39,99.99,,,-99.99,,2013-04-19 19:11:00,
2013-04-19 15:21:00,93.0,64.0,29.96,SW,219,10.0,15.0,39,99.99,,,-99.99,,2013-04-19 19:21:00,
2013-04-19 15:32:00,93.0,64.0,29.95,SW,222,12.0,19.0,38,99.99,,,-99.99,,2013-04-19 19:32:00,
2013-04-19 15:42:00,93.0,64.0,29.95,SW,222,12.0,19.0,38,99.99,,,-99.99,,2013-04-19 19:42:00,
2013-04-19 15:52:00,94.0,64.0,29.94,SSW,212,8.0,15.0,38,99.99,,,-99.99,,2013-04-19 19:52:00,
2013-04-19 16:02:00,93.0,65.0,29.93,SW,236,8.0,14.0,40,99.99,,,-99.99,,2013-04-19 20:02:00,
2013-04-19 16:11:00,92.0,64.0,29.93,SW,224,8.0,12.0,40,99.99,,,-99.99,,2013-04-19 20:11:00,
2013-04-19 16:22:00,92.0,64.0,29.93,SW,224,8.0,12.0,40,99.99,,,-99.99,,2013-04-19 20:22:00,
2013-04-19 16:32:00,91.0,63.0,29.93,SSW,210,9.0,16.0,40,99.99,,,-99.99,,2013-04-19 20:32:00,
2013-04-19 16:42:00,90.0,64.0,29.93,South,191,10.0,14.0,43,99.99,,,-99.99,,2013-04-19 20:42:00,
2013-04-19 16:52:00,90.0,64.0,29.93,South,191,10.0,14.0,43,99.99,,,-99.99,,2013-04-19 20:52:00,
2013-04-19 17:01:00,88.0,66.0,29.94,WSW,257,8.0,16.0,48,99.99,,,-99.99,,2013-04-19 21:01:00,
2013-04-19 17:11:00,83.0,66.0,29.93,West,270,5.0,7.0,56,99.99,,,-99.99,,2013-04-19 21:11:00,
2013-04-19 17:21:00,83.0,66.0,29.93,West,270,5.0,7.0,56,99.99,,,-99.99,,2013-04-19 21:21:00,
2013-04-19 17:32:00,83.0,70.0,29.93,SW,219,9.0,17.0,65,99.99,,,-99.99,,2013-04-19 21:32:00,
2013-04-19 17:42:00,83.0,70.0,29.93,SW,219,9.0,17.0,65,99.99,,,-99.99,,2013-04-19 21:42:00,
2013-04-19 17:53:00,79.0,72.0,29.93,SSE,148,3.0,6.0,78,99.99,,,-99.99,,2013-04-19 21:53:00,
2013-04-19 18:02:00,78.0,72.0,29.92,South,176,5.0,8.0,81,99.99,,,-99.99,,2013-04-19 22:02:00,
2013-04-19 18:12:00,79.0,72.0,29.93,SSE,156,4.0,7.0,80,99.99,,,-99.99,,2013-04-19 22:12:00,
2013-04-19 18:23:00,79.0,72.0,29.93,SSE,156,4.0,7.0,80,99.99,,,-99.99,,2013-04-19 22:23:00,
2013-04-19 18:33:00,79.0,71.0,29.94,South,177,9.0,15.0,76,99.99,,,-99.99,,2013-04-19 22:33:00,
2013-04-19 18:42:00,78.0,71.0,29.94,SSE,150,7.0,11.0,78,99.99,,,-99.99,,2013-04-19 22:42:00,
2013-04-19 18:52:00,78.0,71.0,29.94,SSE,150,7.0,11.0,78,99.99,,,-99.99,,2013-04-19 22:52:00,
2013-04-19 19:03:00,78.0,71.0,29.94,SE,142,4.0,7.0,79,99.99,,,-99.99,,2013-04-19 23:03:00,
2013-04-19 19:11:00,79.0,72.0,29.95,SSW,207,5.0,9.0,78,99.99,,,-99.99,,2013-04-19 23:11:00,
2013-04-19 19:22:00,79.0,72.0,29.95,SSW,207,5.0,9.0,78,99.99,,,-99.99,,2013-04-19 23:22:00,
2013-04-19 19:32:00,79.0,71.0,29.95,SSW,200,8.0,13.0,76,99.99,,,-99.99,,2013-04-19 23:32:00,
2013-04-19 19:42:00,79.0,71.0,29.95,SSW,200,8.0,13.0,76,99.99,,,-99.99,,2013-04-19 23:42:00,
2013-04-19 19:52:00,77.0,70.0,29.96,South,174,10.0,16.0,78,99.99,,,-99.99,,2013-04-19 23:52:00,
2013-04-19 20:02:00,76.0,72.0,29.98,SSW,204,9.0,14.0,87,99.99,,,-99.99,,2013-04-20 00:02:00,
2013-04-19 20:12:00,75.0,73.0,29.99,SW,221,7.0,15.0,92,99.99,,,-99.99,,2013-04-20 00:12:00,
2013-04-19 20:22:00,75.0,73.0,29.99,SW,221,7.0,15.0,92,99.99,,,-99.99,,2013-04-20 00:22:00,
2013-04-19 20:32:00,74.0,73.0,29.99,SW,224,7.0,10.0,97,99.99,,,-99.99,,2013-04-20 00:32:00,
2013-04-19 20:42:00,74.0,73.0,29.99,SW,224,7.0,10.0,97,99.99,,,-99.99,,2013-04-20 00:42:00,
2013-04-19 20:52:00,73.0,73.0,29.98,SSE,156,6.0,9.0,100,99.99,,,-99.99,,2013-04-20 00:52:00,
2013-04-19 21:01:00,73.0,73.0,29.99,SSE,167,4.0,9.0,100,99.99,,,-99.99,,2013-04-20 01:01:00,
2013-04-19 21:11:00,73.0,73.0,29.99,SSE,167,4.0,9.0,100,99.99,,,-99.99,,2013-04-20 01:11:00,
2013-04-19 21:21:00,72.0,72.0,30.00,SSE,159,4.0,7.0,100,99.99,,,-99.99,,2013-04-20 01:21:00,
2013-04-19 21:32:00,72.0,72.0,30.01,SSE,156,0.0,2.0,100,99.99,,,-99.99,,2013-04-20 01:32:00,
2013-04-19 21:42:00,72.0,72.0,30.01,SSE,156,0.0,2.0,100,99.99,,,-99.99,,2013-04-20 01:42:00,
2013-04-19 21:52:00,72.0,72.0,30.01,North,0,0.0,0.0,100,99.99,,,-99.99,,2013-04-20 01:52:00,
2013-04-19 22:01:00,72.0,72.0,30.01,South,191,0.0,3.0,100,99.99,,,-99.99,,2013-04-20 02:01:00,
2013-04-19 22:11:00,72.0,72.0,30.01,SSW,195,2.0,4.0,100,99.99,,,-99.99,,2013-04-20 02:11:00,
2013-04-19 22:21:00,72.0,72.0,30.01,SSW,195,2.0,4.0,100,99.99,,,-99.99,,2013-04-20 02:21:00,
2013-04-19 22:32:00,72.0,72.0,30.02,South,181,2.0,4.0,100,99.99,,,-99.99,,2013-04-20 02:32:00,
2013-04-19 22:42:00,72.0,72.0,30.02,South,181,2.0,4.0,100,99.99,,,-99.99,,2013-04-20 02:42:00,
2013-04-19 22:52:00,72.0,72.0,30.02,SSW,200,3.0,4.0,100,99.99,,,-99.99,,2013-04-20 02:52:00,
2013-04-19 23:01:00,72.0,72.0,30.02,North,0,0.0,0.0,100,99.99,,,-99.99,,2013-04-20 03:01:00,
2013-04-19 23:11:00,72.0,72.0,30.02,North,0,0.0,0.0,100,99.99,,,-99.99,,2013-04-20 03:11:00,
2013-04-19 23:21:00,72.0,72.0,30.02,North,0,0.0,0.0,100,99.99,,,-99.99,,2013-04-20 03:21:00,
2013-04-19 23:33:00,71.0,71.0,30.02,North,0,0.0,0.0,100,99.99,,,-99.99,,2013-04-20 03:33:00,
2013-04-19 23:43:00,71.0,71.0,30.02,North,0,0.0,0.0,100,99.99,,,-99.99,,2013-04-20 03:43:00,
2013-04-19 23:52:00,71.0,71.0,30.02,North,0,0.0,0.0,100,99.99,,,-99.99,,2013-04-20 03:52:00,